Time;durP1;ratioP1;P1;durP2;ratioP2;P2;SDS_P1;SDS_P2;PMS_P1;PMS_P2;Temp;Humidity;BMP_temperature;BMP_pressure;BME280_temperature;BME280_humidity;BME280_pressure;Samples;Min_cycle;Max_cycle;Signal;HPM_P1;HPM_P2
2023/09/17 00:01:06;;;;;;;3.85;2.03;;;;;;;15.15;80.02;100628.94;5105365;28;20023;-67
2023/09/17 00:03:32;;;;;;;3.10;1.85;;;;;;;15.18;79.67;100634.09;5105595;28;20026;-69
2023/09/17 00:05:58;;;;;;;3.00;1.58;;;;;;;15.16;79.59;100630.69;5105642;28;20050;-69
2023/09/17 00:08:23;;;;;;;3.30;1.65;;;;;;;15.17;79.31;100627.16;5105835;28;20020;-69
2023/09/17 00:10:49;;;;;;;4.30;1.77;;;;;;;15.15;79.30;100627.19;5105663;28;20060;-68
2023/09/17 00:13:15;;;;;;;3.05;1.63;;;;;;;15.16;79.16;100635.91;5103630;28;20031;-68
2023/09/17 00:15:41;;;;;;;4.25;2.53;;;;;;;15.15;79.56;100639.41;5087230;28;20024;-68
2023/09/17 00:18:06;;;;;;;1.67;1.55;;;;;;;15.15;79.57;100642.00;5105486;28;20399;-68
2023/09/17 00:20:32;;;;;;;5.40;1.98;;;;;;;15.17;79.52;100646.34;5104043;28;20024;-69
2023/09/17 00:22:59;;;;;;;3.35;2.08;;;;;;;15.18;79.63;100644.56;5105274;28;20150;-68
2023/09/17 00:25:25;;;;;;;2.63;1.77;;;;;;;15.19;79.66;100651.53;5105191;28;20022;-69
2023/09/17 00:27:51;;;;;;;5.70;2.83;;;;;;;15.13;79.85;100641.22;5104949;28;20061;-69
2023/09/17 00:30:16;;;;;;;2.70;1.98;;;;;;;15.17;79.86;100646.34;5104981;28;20020;-69
2023/09/17 00:32:41;;;;;;;3.80;2.38;;;;;;;15.13;79.72;100636.81;5105236;28;20073;-68
2023/09/17 00:35:07;;;;;;;3.83;1.58;;;;;;;15.18;79.45;100644.56;5105231;28;20266;-69
2023/09/17 00:37:33;;;;;;;2.55;1.88;;;;;;;15.17;79.47;100643.72;5105243;28;20024;-69
2023/09/17 00:39:58;;;;;;;8.60;1.98;;;;;;;15.18;79.49;100649.78;5105188;28;20039;-69
2023/09/17 00:42:24;;;;;;;2.53;2.20;;;;;;;15.19;79.64;100659.38;5103515;28;20020;-69
2023/09/17 00:44:49;;;;;;;5.72;2.83;;;;;;;15.18;79.08;100649.78;5105074;28;20049;-69
2023/09/17 00:47:15;;;;;;;3.70;2.25;;;;;;;15.21;79.15;100654.94;5086781;28;20020;-69
2023/09/17 00:49:41;;;;;;;2.35;1.80;;;;;;;15.26;79.25;100660.06;5104752;28;20088;-69
2023/09/17 00:52:15;;;;;;;3.88;2.45;;;;;;;15.26;78.84;100658.31;5105008;28;20028;-68
2023/09/17 00:54:41;;;;;;;3.63;2.22;;;;;;;15.32;78.83;100652.09;5103420;28;20054;-68
2023/09/17 00:57:07;;;;;;;3.05;2.33;;;;;;;15.30;78.74;100649.50;5104960;28;20023;-68
2023/09/17 00:59:32;;;;;;;4.38;2.58;;;;;;;15.34;78.80;100645.91;5105004;28;20077;-67
2023/09/17 01:01:58;;;;;;;6.15;2.80;;;;;;;15.34;78.93;100645.91;5104844;28;20042;-68
2023/09/17 01:04:24;;;;;;;2.45;1.98;;;;;;;15.39;78.54;100658.00;5105002;28;20511;-67
2023/09/17 01:06:52;;;;;;;2.65;2.35;;;;;;;15.41;78.41;100649.25;5104920;28;20535;-68
2023/09/17 01:09:18;;;;;;;3.75;2.78;;;;;;;15.42;78.29;100652.69;5104684;28;20028;-68
2023/09/17 01:11:43;;;;;;;2.38;1.92;;;;;;;15.47;78.45;100656.06;5104651;28;20085;-68
2023/09/17 01:14:12;;;;;;;2.45;1.95;;;;;;;15.44;79.02;100651.78;5104611;28;20027;-67
2023/09/17 01:16:41;;;;;;;5.55;2.42;;;;;;;15.44;79.41;100649.16;5104781;28;20055;-68
2023/09/17 01:19:10;;;;;;;4.43;2.53;;;;;;;15.42;80.78;100644.84;5086532;28;20051;-69
2023/09/17 01:21:41;;;;;;;3.30;2.00;;;;;;;15.35;81.75;100642.41;5104464;28;20094;-69
2023/09/17 01:24:13;;;;;;;5.10;2.85;;;;;;;15.36;82.08;100633.66;5104857;28;20016;-69
2023/09/17 01:26:40;;;;;;;5.40;2.45;;;;;;;15.35;82.75;100638.94;5086585;28;20115;-69
2023/09/17 01:29:06;;;;;;;4.40;2.78;;;;;;;15.29;83.27;100629.47;5104365;28;20159;-69
2023/09/17 01:31:34;;;;;;;5.40;3.35;;;;;;;15.18;83.46;100627.13;5086738;28;20024;-69
2023/09/17 01:34:00;;;;;;;3.58;2.90;;;;;;;15.30;83.71;100643.41;5103995;28;20028;-69
2023/09/17 01:36:35;;;;;;;5.45;3.05;;;;;;;15.21;83.42;100634.88;5104623;28;20035;-69
2023/09/17 01:39:12;;;;;;;4.55;3.00;;;;;;;15.28;83.25;100651.31;5104757;28;20024;-69
2023/09/17 01:41:39;;;;;;;7.15;2.75;;;;;;;15.24;82.96;100640.03;5107717;28;20024;-68
2023/09/17 01:44:07;;;;;;;2.85;2.47;;;;;;;15.24;83.02;100639.19;5106640;28;20429;-69
2023/09/17 01:46:34;;;;;;;5.35;3.22;;;;;;;15.29;83.09;100653.00;5108275;28;20020;-69
2023/09/17 01:49:00;;;;;;;3.40;2.53;;;;;;;15.25;82.65;100646.16;5108261;28;20020;-69
2023/09/17 01:51:29;;;;;;;3.88;3.10;;;;;;;15.27;83.24;100652.19;5108435;28;20028;-69
2023/09/17 01:53:55;;;;;;;6.05;3.17;;;;;;;15.21;83.56;100653.19;5107865;28;20506;-69
2023/09/17 01:56:21;;;;;;;4.95;2.58;;;;;;;15.17;83.86;100654.19;5108011;28;20032;-69
2023/09/17 01:58:46;;;;;;;3.33;2.90;;;;;;;15.14;83.50;100641.19;5107693;28;20023;-69
2023/09/17 02:01:13;;;;;;;4.03;2.75;;;;;;;15.21;83.53;100652.31;5106658;28;20008;-69
2023/09/17 02:03:39;;;;;;;3.25;2.80;;;;;;;15.21;83.69;100647.97;5107923;28;20020;-69
2023/09/17 02:06:04;;;;;;;5.82;3.28;;;;;;;15.19;83.67;100649.75;5106529;28;20022;-69
2023/09/17 02:08:30;;;;;;;6.45;2.80;;;;;;;15.18;83.62;100655.88;5107427;28;20063;-69
2023/09/17 02:10:56;;;;;;;4.85;2.95;;;;;;;15.19;83.99;100654.97;5107974;28;20016;-70
2023/09/17 02:13:21;;;;;;;5.10;3.83;;;;;;;15.15;83.90;100642.88;5107563;28;20031;-69
2023/09/17 02:15:46;;;;;;;3.03;2.55;;;;;;;15.18;83.84;100649.78;5108476;28;20035;-68
2023/09/17 02:18:12;;;;;;;2.40;2.20;;;;;;;15.19;83.69;100652.38;5089734;28;20031;-67
2023/09/17 02:20:38;;;;;;;10.85;3.08;;;;;;;15.18;83.26;100652.41;5107558;28;20024;-67
2023/09/17 02:23:04;;;;;;;3.25;2.42;;;;;;;15.15;82.91;100657.72;5089441;28;20016;-68
2023/09/17 02:25:29;;;;;;;6.82;2.65;;;;;;;15.12;82.90;100650.81;5107367;28;20081;-69
2023/09/17 02:27:54;;;;;;;3.85;2.70;;;;;;;15.10;82.81;100658.69;5105911;28;20104;-68
2023/09/17 02:30:20;;;;;;;5.00;3.17;;;;;;;15.07;82.47;100652.66;5107474;28;20024;-68
2023/09/17 02:32:45;;;;;;;3.78;2.75;;;;;;;15.04;82.53;100652.72;5089056;28;20024;-69
2023/09/17 02:35:11;;;;;;;2.65;1.70;;;;;;;14.98;82.50;100653.75;5107428;28;20022;-68
2023/09/17 02:37:37;;;;;;;4.00;2.30;;;;;;;14.95;82.17;100667.72;5107145;28;20430;-68
2023/09/17 02:40:04;;;;;;;6.25;2.13;;;;;;;14.85;82.24;100659.25;5107027;28;20024;-68
2023/09/17 02:42:30;;;;;;;3.15;2.72;;;;;;;14.81;82.38;100662.81;5106818;28;20016;-69
2023/09/17 02:44:55;;;;;;;2.90;2.40;;;;;;;14.77;82.41;100668.97;5107190;28;20023;-68
2023/09/17 02:47:21;;;;;;;11.13;2.65;;;;;;;14.71;82.65;100667.34;5106941;28;20050;-69
2023/09/17 02:49:46;;;;;;;2.92;2.33;;;;;;;14.65;82.77;100677.09;5106870;28;20027;-68
2023/09/17 02:52:11;;;;;;;2.33;2.13;;;;;;;14.53;82.57;100679.06;5106851;28;20056;-68
2023/09/17 02:54:37;;;;;;;4.90;2.33;;;;;;;14.46;82.42;100672.22;5106777;28;20059;-69
2023/09/17 02:57:02;;;;;;;3.72;2.28;;;;;;;14.44;82.60;100692.31;5106868;28;20028;-68
2023/09/17 02:59:28;;;;;;;3.35;2.22;;;;;;;14.45;82.87;100686.19;5106387;28;20031;-68
2023/09/17 03:01:53;;;;;;;4.57;2.63;;;;;;;14.46;82.88;100693.13;5105306;28;20023;-68
2023/09/17 03:04:18;;;;;;;3.03;2.28;;;;;;;14.50;82.66;100700.88;5106844;28;20046;-68
2023/09/17 03:06:44;;;;;;;4.55;2.28;;;;;;;14.49;82.68;100699.16;5106777;28;20024;-68
2023/09/17 03:09:11;;;;;;;3.63;1.95;;;;;;;14.49;82.79;100708.72;5106538;28;20044;-68
2023/09/17 03:11:37;;;;;;;2.50;2.17;;;;;;;14.47;82.68;100708.75;5088119;28;20020;-68
2023/09/17 03:14:02;;;;;;;3.47;2.47;;;;;;;14.50;82.94;100710.47;5106168;28;20031;-69
2023/09/17 03:16:29;;;;;;;3.83;1.85;;;;;;;14.57;82.87;100716.44;5106412;28;20020;-68
2023/09/17 03:18:55;;;;;;;4.15;2.38;;;;;;;14.59;82.86;100715.50;5088281;28;20047;-68
2023/09/17 03:21:21;;;;;;;2.38;2.17;;;;;;;14.62;82.80;100705.00;5088201;28;20047;-68
2023/09/17 03:23:46;;;;;;;2.92;1.95;;;;;;;14.67;82.23;100712.72;5106267;28;20027;-68
2023/09/17 03:26:11;;;;;;;7.13;3.60;;;;;;;14.70;82.35;100717.03;5106148;28;20020;-68
2023/09/17 03:28:37;;;;;;;3.42;2.20;;;;;;;14.67;82.46;100711.88;5105943;28;20031;-68
2023/09/17 03:31:03;;;;;;;1.88;1.65;;;;;;;14.62;82.42;100717.19;5106363;28;20074;-69
2023/09/17 03:33:29;;;;;;;2.88;2.28;;;;;;;14.63;82.66;100722.38;5106235;28;20031;-70
2023/09/17 03:35:54;;;;;;;4.97;2.35;;;;;;;14.61;82.56;100732.03;5087797;28;20028;-69
2023/09/17 03:38:20;;;;;;;1.88;1.73;;;;;;;14.55;82.92;100726.06;5106119;28;20080;-68
2023/09/17 03:40:46;;;;;;;5.28;2.70;;;;;;;14.53;82.68;100739.16;5105984;28;20028;-68
2023/09/17 03:43:12;;;;;;;2.55;2.22;;;;;;;14.45;82.92;100725.38;5105814;28;20026;-68
2023/09/17 03:45:37;;;;;;;2.38;1.77;;;;;;;14.43;82.84;100728.00;5106010;28;20020;-68
2023/09/17 03:48:04;;;;;;;5.07;1.63;;;;;;;14.37;82.87;100730.75;5087650;28;20063;-68
2023/09/17 03:50:30;;;;;;;1.90;1.70;;;;;;;14.35;83.11;100733.38;5105716;28;20051;-68
2023/09/17 03:52:57;;;;;;;2.55;1.88;;;;;;;14.33;82.96;100740.38;5087556;28;20036;-68
2023/09/17 03:55:23;;;;;;;3.20;1.85;;;;;;;14.33;82.77;100739.53;5105418;28;20553;-68
2023/09/17 03:57:49;;;;;;;2.63;1.85;;;;;;;14.31;82.96;100739.56;5087226;28;20020;-68
2023/09/17 04:00:15;;;;;;;2.80;1.80;;;;;;;14.25;82.58;100743.13;5105598;28;20023;-68
2023/09/17 04:02:42;;;;;;;5.20;2.33;;;;;;;14.20;82.90;100749.34;5105333;28;20024;-68
2023/09/17 04:05:11;;;;;;;2.22;1.55;;;;;;;14.09;82.91;100742.56;5105715;28;20020;-69
2023/09/17 04:07:37;;;;;;;3.20;2.03;;;;;;;14.08;83.10;100750.41;5087375;28;20020;-68
2023/09/17 04:10:05;;;;;;;1.55;1.15;;;;;;;13.99;82.90;100754.06;5105442;28;20115;-67
2023/09/17 04:12:32;;;;;;;2.22;1.83;;;;;;;13.94;83.06;100750.66;5105279;28;20024;-68
2023/09/17 04:14:57;;;;;;;5.85;1.73;;;;;;;13.93;83.24;100756.78;5105472;28;20024;-69
2023/09/17 04:17:23;;;;;;;2.25;1.52;;;;;;;13.90;83.58;100759.44;5105376;28;20076;-68
2023/09/17 04:19:50;;;;;;;2.60;1.35;;;;;;;13.85;83.39;100760.34;5105339;28;20045;-69
2023/09/17 04:22:16;;;;;;;2.30;1.67;;;;;;;13.82;83.29;100760.41;5086938;28;20016;-68
2023/09/17 04:24:42;;;;;;;9.40;2.40;;;;;;;13.70;83.47;100761.47;5105221;28;20088;-68
2023/09/17 04:27:08;;;;;;;2.58;1.75;;;;;;;13.69;83.73;100761.50;5105223;28;20016;-68
2023/09/17 04:29:33;;;;;;;1.90;1.13;;;;;;;13.66;83.77;100762.38;5104971;28;20565;-68
2023/09/17 04:31:59;;;;;;;2.92;1.95;;;;;;;13.61;83.85;100765.06;5105235;28;20141;-67
2023/09/17 04:34:24;;;;;;;2.33;1.77;;;;;;;13.55;83.63;100757.34;5086853;28;20031;-68
2023/09/17 04:36:50;;;;;;;1.52;1.33;;;;;;;13.56;83.74;100768.66;5086897;28;20020;-69
2023/09/17 04:39:16;;;;;;;1.75;1.55;;;;;;;13.49;83.76;100766.09;5105026;28;20379;-68
2023/09/17 04:41:42;;;;;;;2.05;1.45;;;;;;;13.37;83.78;100753.25;5086949;28;20103;-68
2023/09/17 04:44:07;;;;;;;3.20;1.80;;;;;;;13.41;83.94;100765.34;5086704;28;20012;-75
2023/09/17 04:46:43;;;;;;;1.63;1.52;;;;;;;13.44;84.28;100775.75;5105155;28;20045;-68
2023/09/17 04:49:09;;;;;;;1.73;1.63;;;;;;;13.38;84.41;100771.47;5103937;28;20041;-68
2023/09/17 04:51:34;;;;;;;2.20;1.65;;;;;;;13.37;84.67;100769.75;5105035;28;20050;-68
2023/09/17 04:54:01;;;;;;;2.45;1.92;;;;;;;13.36;85.08;100777.59;5104712;28;20044;-68
2023/09/17 04:56:27;;;;;;;2.90;1.92;;;;;;;13.39;85.15;100785.38;5086895;28;20024;-69
2023/09/17 04:58:52;;;;;;;2.70;2.00;;;;;;;13.41;85.59;100795.78;5104792;28;20027;-68
2023/09/17 05:01:17;;;;;;;2.22;1.88;;;;;;;13.40;85.41;100789.72;5105115;28;20024;-68
2023/09/17 05:03:43;;;;;;;2.95;2.20;;;;;;;13.39;85.70;100794.06;5105081;28;20108;-68
2023/09/17 05:06:09;;;;;;;2.30;2.05;;;;;;;13.47;85.88;100803.50;5104868;28;20020;-68
2023/09/17 05:08:34;;;;;;;3.10;1.77;;;;;;;13.52;86.19;100804.34;5086634;28;20024;-68
2023/09/17 05:10:59;;;;;;;4.60;1.92;;;;;;;13.57;86.37;100792.09;5104800;28;20035;-68
2023/09/17 05:13:25;;;;;;;3.42;1.67;;;;;;;13.62;86.36;100808.56;5086396;28;20028;-68
2023/09/17 05:15:50;;;;;;;2.50;1.85;;;;;;;13.71;86.49;100799.72;5107132;28;20024;-68
2023/09/17 05:18:16;;;;;;;5.88;2.22;;;;;;;13.74;86.69;100814.47;5108854;28;20027;-68
2023/09/17 05:20:44;;;;;;;4.93;2.05;;;;;;;13.73;86.59;100815.34;5108834;28;20066;-67
2023/09/17 05:23:12;;;;;;;4.40;2.03;;;;;;;13.75;86.59;100808.38;5090470;28;20016;-68
2023/09/17 05:25:38;;;;;;;4.15;2.45;;;;;;;13.73;86.26;100807.53;5108662;28;20037;-68
2023/09/17 05:28:06;;;;;;;2.10;1.90;;;;;;;13.76;85.99;100817.91;5108433;28;20020;-68
2023/09/17 05:30:36;;;;;;;1.52;1.42;;;;;;;13.77;86.04;100819.63;5108280;28;20110;-68
2023/09/17 05:33:02;;;;;;;2.50;2.08;;;;;;;13.77;86.13;100824.84;5107243;28;20036;-68
2023/09/17 05:35:28;;;;;;;2.78;1.75;;;;;;;13.80;86.23;100829.19;5090230;28;20388;-68
2023/09/17 05:37:54;;;;;;;3.40;2.30;;;;;;;13.80;86.17;100835.22;5090283;28;20356;-68
2023/09/17 05:40:19;;;;;;;3.03;2.08;;;;;;;13.81;86.08;100838.72;5108328;28;20024;-67
2023/09/17 05:42:45;;;;;;;6.20;1.95;;;;;;;13.78;86.27;100837.03;5089846;28;20331;-68
2023/09/17 05:45:10;;;;;;;2.72;2.13;;;;;;;13.77;86.22;100837.88;5107016;28;20020;-69
2023/09/17 05:47:36;;;;;;;3.17;2.20;;;;;;;13.69;86.44;100834.56;5108257;28;20024;-68
2023/09/17 05:50:03;;;;;;;3.67;1.95;;;;;;;13.73;86.58;100849.28;5108217;28;20054;-68
2023/09/17 05:52:29;;;;;;;4.72;3.00;;;;;;;13.74;86.74;100856.19;5108151;28;20024;-68
2023/09/17 05:54:54;;;;;;;2.85;1.98;;;;;;;13.74;86.77;100857.06;5089424;28;20081;-68
2023/09/17 05:57:19;;;;;;;3.28;2.30;;;;;;;13.73;86.88;100854.50;5107741;28;20035;-69
2023/09/17 05:59:45;;;;;;;2.03;1.55;;;;;;;13.74;86.88;100851.84;5108074;28;20016;-69
2023/09/17 06:02:11;;;;;;;2.67;1.38;;;;;;;13.77;86.95;100858.75;5108160;28;20026;-69
2023/09/17 06:04:37;;;;;;;1.75;1.42;;;;;;;13.75;86.77;100864.00;5106686;28;20020;-67
2023/09/17 06:07:03;;;;;;;5.57;1.80;;;;;;;13.75;86.58;100865.78;5107705;28;20217;-67
2023/09/17 06:09:28;;;;;;;2.28;1.48;;;;;;;13.74;86.53;100871.84;5107774;28;20031;-69
2023/09/17 06:11:54;;;;;;;2.88;1.45;;;;;;;13.75;86.46;100873.59;5107849;28;20016;-69
2023/09/17 06:14:19;;;;;;;2.15;1.95;;;;;;;13.70;86.58;100864.97;5107610;28;20028;-68
2023/09/17 06:16:44;;;;;;;2.95;1.58;;;;;;;13.70;86.57;100873.66;5107759;28;20507;-69
2023/09/17 06:19:10;;;;;;;1.65;1.55;;;;;;;13.70;86.47;100875.41;5106117;28;20092;-69
2023/09/17 06:21:35;;;;;;;3.03;1.67;;;;;;;13.67;86.60;100880.66;5107495;28;20027;-69
2023/09/17 06:24:01;;;;;;;0.98;0.93;;;;;;;13.69;86.47;100879.75;5107452;28;20027;-68
2023/09/17 06:26:26;;;;;;;1.63;1.30;;;;;;;13.63;86.31;100890.28;5105747;28;20036;-68
2023/09/17 06:28:52;;;;;;;1.90;1.33;;;;;;;13.65;85.77;100882.44;5107385;28;20024;-69
2023/09/17 06:31:17;;;;;;;1.42;1.25;;;;;;;13.57;85.97;100893.84;5107244;28;20020;-68
2023/09/17 06:33:43;;;;;;;1.85;1.20;;;;;;;13.54;86.04;100891.28;5107493;28;20028;-69
2023/09/17 06:36:08;;;;;;;1.17;1.08;;;;;;;13.49;85.78;100893.03;5089120;28;20016;-68
2023/09/17 06:38:33;;;;;;;4.38;1.98;;;;;;;13.48;85.76;100896.53;5107121;28;20378;-68
2023/09/17 06:40:59;;;;;;;2.70;1.38;;;;;;;13.43;85.89;100898.34;5107098;28;20032;-68
2023/09/17 06:43:24;;;;;;;1.95;1.67;;;;;;;13.37;85.50;100905.34;5105347;28;20031;-75
2023/09/17 06:45:50;;;;;;;3.25;2.15;;;;;;;13.22;85.67;100892.50;5107026;28;20020;-75
2023/09/17 06:48:15;;;;;;;2.20;1.67;;;;;;;13.21;85.47;100898.59;5107006;28;20028;-69
2023/09/17 06:50:40;;;;;;;1.50;1.33;;;;;;;13.18;85.81;100899.47;5106986;28;20041;-68
2023/09/17 06:53:06;;;;;;;1.80;1.50;;;;;;;13.13;86.21;100912.56;5107121;28;20441;-67
2023/09/17 06:55:32;;;;;;;1.65;1.50;;;;;;;13.06;86.28;100892.69;5106868;28;20401;-68
2023/09/17 06:57:58;;;;;;;2.20;1.98;;;;;;;13.16;86.37;100906.47;5106830;28;20039;-69
2023/09/17 07:00:23;;;;;;;1.77;1.48;;;;;;;13.22;86.18;100915.97;5106972;28;20028;-68
2023/09/17 07:02:48;;;;;;;2.85;2.08;;;;;;;13.24;86.37;100907.22;5106988;28;20051;-68
2023/09/17 07:05:14;;;;;;;2.50;2.05;;;;;;;13.26;86.11;100922.84;5106654;28;20043;-68
2023/09/17 07:07:39;;;;;;;2.50;1.65;;;;;;;13.30;86.18;100911.53;5106738;28;20085;-68
2023/09/17 07:10:05;;;;;;;2.78;2.17;;;;;;;13.32;85.62;100916.72;5088430;28;20233;-68
2023/09/17 07:12:37;;;;;;;2.03;1.75;;;;;;;13.28;85.97;100921.09;5106355;28;20027;-69
2023/09/17 07:15:06;;;;;;;1.35;0.98;;;;;;;13.31;85.67;100931.50;5106871;28;20414;-68
2023/09/17 07:17:31;;;;;;;5.85;1.92;;;;;;;13.30;85.71;100928.91;5088248;28;20122;-67
2023/09/17 07:19:57;;;;;;;9.38;3.22;;;;;;;13.27;86.08;100922.00;5106555;28;20349;-67
2023/09/17 07:22:22;;;;;;;2.45;2.25;;;;;;;13.29;86.00;100927.19;5106380;28;20372;-68
2023/09/17 07:24:47;;;;;;;4.93;2.78;;;;;;;13.30;85.96;100929.78;5106250;28;20099;-68
2023/09/17 07:27:13;;;;;;;6.38;2.47;;;;;;;13.32;86.12;100927.16;5104996;28;20023;-68
2023/09/17 07:29:39;;;;;;;3.75;2.10;;;;;;;13.27;86.00;100922.84;5105929;28;20145;-69
2023/09/17 07:32:05;;;;;;;2.42;1.70;;;;;;;13.41;85.64;100939.22;5106185;28;20020;-68
2023/09/17 07:34:31;;;;;;;1.65;1.35;;;;;;;13.38;86.16;100950.56;5106340;28;20033;-68
2023/09/17 07:36:56;;;;;;;2.15;1.60;;;;;;;13.43;85.79;100948.75;5106115;28;20082;-69
2023/09/17 07:39:22;;;;;;;6.75;3.08;;;;;;;13.42;85.51;100948.78;5105611;28;20103;-67
2023/09/17 07:41:47;;;;;;;1.65;1.30;;;;;;;13.48;85.32;100964.34;5087771;28;20020;-70
2023/09/17 07:44:13;;;;;;;2.25;1.23;;;;;;;13.48;84.96;100969.56;5104576;28;20016;-70
2023/09/17 07:46:38;;;;;;;5.57;1.40;;;;;;;13.48;85.24;100966.97;5105846;28;20043;-68
2023/09/17 07:49:04;;;;;;;2.10;1.35;;;;;;;13.58;85.62;100960.78;5106010;28;20099;-66
2023/09/17 07:51:29;;;;;;;1.73;1.52;;;;;;;13.63;85.45;100965.94;5105621;28;20028;-64
2023/09/17 07:53:55;;;;;;;2.67;1.73;;;;;;;13.77;84.74;100977.97;5105543;28;20095;-65
2023/09/17 07:56:21;;;;;;;2.97;1.35;;;;;;;13.88;83.80;100970.88;5105723;28;20024;-66
2023/09/17 07:58:46;;;;;;;1.27;1.08;;;;;;;13.92;83.74;100984.72;5105149;28;20051;-65
2023/09/17 08:01:11;;;;;;;1.70;1.10;;;;;;;13.95;83.14;100979.44;5105799;28;20480;-66
2023/09/17 08:03:37;;;;;;;2.33;2.13;;;;;;;13.92;82.04;100969.91;5105686;28;20473;-66
2023/09/17 08:06:03;;;;;;;1.83;1.50;;;;;;;14.03;81.84;100995.88;5105404;28;20499;-66
2023/09/17 08:08:28;;;;;;;0.90;0.82;;;;;;;14.17;80.94;100992.22;5105424;28;20449;-64
2023/09/17 08:10:54;;;;;;;0.65;0.60;;;;;;;14.21;80.33;100992.16;5105378;28;20488;-65
2023/09/17 08:13:20;;;;;;;1.25;1.02;;;;;;;14.27;80.74;100999.03;5105026;28;20506;-64
2023/09/17 08:15:49;;;;;;;1.77;1.35;;;;;;;14.36;80.05;100985.00;5105541;28;20111;-65
2023/09/17 08:18:14;;;;;;;0.60;0.60;;;;;;;14.55;79.90;100997.75;5087247;28;20027;-63
2023/09/17 08:20:40;;;;;;;2.45;1.35;;;;;;;14.73;79.03;100988.75;5105236;28;20039;-65
2023/09/17 08:23:05;;;;;;;1.35;1.23;;;;;;;15.01;79.26;100982.22;5105385;28;20016;-64
2023/09/17 08:25:30;;;;;;;1.63;1.05;;;;;;;15.31;78.06;100982.56;5105304;28;20059;-64
2023/09/17 08:27:56;;;;;;;2.03;1.23;;;;;;;15.49;77.66;100987.41;5105147;28;20016;-64
2023/09/17 08:30:21;;;;;;;2.28;1.40;;;;;;;15.66;77.15;100982.75;5105355;28;20463;-64
2023/09/17 08:32:47;;;;;;;1.40;1.30;;;;;;;15.89;76.42;100982.28;5105015;28;20028;-63
2023/09/17 08:35:15;;;;;;;1.08;1.00;;;;;;;16.26;75.57;100975.41;5105048;28;20016;-64
2023/09/17 08:37:42;;;;;;;1.98;1.42;;;;;;;16.55;74.30;100980.84;5104783;28;20388;-64
2023/09/17 08:40:09;;;;;;;2.83;1.08;;;;;;;16.85;73.65;100976.56;5105081;28;20024;-63
2023/09/17 08:42:37;;;;;;;1.35;1.08;;;;;;;16.88;73.04;100980.91;5086651;28;20053;-63
2023/09/17 08:45:05;;;;;;;0.80;0.68;;;;;;;17.15;71.61;100973.22;5086454;28;20027;-64
2023/09/17 08:47:31;;;;;;;1.27;1.10;;;;;;;17.28;70.98;100984.25;5086926;28;20069;-64
2023/09/17 08:49:56;;;;;;;0.93;0.75;;;;;;;17.26;70.80;100986.06;5107247;28;20024;-63
2023/09/17 08:52:25;;;;;;;1.02;0.93;;;;;;;17.44;70.88;100984.66;5109120;28;20028;-64
2023/09/17 08:54:52;;;;;;;3.33;0.90;;;;;;;17.52;70.14;100984.47;5108984;28;20050;-64
2023/09/17 08:57:22;;;;;;;1.15;0.80;;;;;;;17.46;70.74;100984.63;5109286;28;20078;-64
2023/09/17 08:59:57;;;;;;;1.10;1.00;;;;;;;17.46;69.30;100989.88;5108930;28;20020;-64
2023/09/17 09:02:32;;;;;;;0.70;0.70;;;;;;;17.52;70.03;100987.09;5109115;28;20046;-64
2023/09/17 09:05:00;;;;;;;0.90;0.80;;;;;;;17.95;69.79;100992.88;5108953;28;20050;-64
2023/09/17 09:07:27;;;;;;;2.05;1.30;;;;;;;18.84;68.75;101002.38;5108947;28;20042;-63
2023/09/17 09:09:54;;;;;;;1.20;0.80;;;;;;;19.26;66.48;101000.09;5108755;28;20020;-64
2023/09/17 09:12:20;;;;;;;1.40;0.75;;;;;;;19.18;65.38;100997.75;5109048;28;20116;-64
2023/09/17 09:14:47;;;;;;;1.38;0.90;;;;;;;19.33;65.96;100998.97;5108628;28;20063;-64
2023/09/17 09:17:15;;;;;;;0.95;0.70;;;;;;;19.98;64.60;101005.38;5108853;28;20110;-64
2023/09/17 09:19:41;;;;;;;6.57;1.00;;;;;;;20.52;63.21;100999.78;5108900;28;20031;-65
2023/09/17 09:22:06;;;;;;;0.88;0.70;;;;;;;20.50;61.48;100997.22;5108634;28;20111;-64
2023/09/17 09:24:45;;;;;;;1.15;0.77;;;;;;;20.55;61.96;101011.09;5107624;28;20043;-65
2023/09/17 09:27:10;;;;;;;1.48;0.98;;;;;;;20.93;61.80;101001.66;5108917;28;20028;-64
2023/09/17 09:29:36;;;;;;;1.05;0.82;;;;;;;21.54;59.75;101001.66;5108316;28;20087;-64
2023/09/17 09:32:03;;;;;;;0.95;0.82;;;;;;;21.82;58.66;101004.84;5108303;28;20028;-64
2023/09/17 09:34:28;;;;;;;0.90;0.80;;;;;;;21.90;58.80;101000.06;5108537;28;20024;-64
2023/09/17 09:36:54;;;;;;;6.80;1.20;;;;;;;22.24;57.20;100995.81;5108100;28;20024;-64
2023/09/17 09:39:20;;;;;;;0.45;0.45;;;;;;;22.26;56.07;101001.88;5108279;28;20024;-64
2023/09/17 09:41:46;;;;;;;1.17;0.98;;;;;;;22.25;54.78;100994.88;5108197;28;20024;-64
2023/09/17 09:44:12;;;;;;;2.25;1.13;;;;;;;21.87;53.95;101013.44;5107995;28;20020;-64
2023/09/17 09:46:38;;;;;;;1.08;0.80;;;;;;;21.09;54.53;100998.34;5108112;28;20369;-64
2023/09/17 09:49:04;;;;;;;1.75;1.15;;;;;;;20.59;55.17;101008.31;5108100;28;20444;-64
2023/09/17 09:51:31;;;;;;;0.73;0.68;;;;;;;20.25;55.76;101011.41;5107872;28;20203;-64
2023/09/17 09:53:57;;;;;;;1.02;0.82;;;;;;;20.11;55.98;101019.81;5107409;28;20100;-64
2023/09/17 09:56:27;;;;;;;1.17;0.90;;;;;;;19.91;56.50;101015.31;5107963;28;20032;-64
2023/09/17 09:58:55;;;;;;;1.42;1.08;;;;;;;19.78;56.42;101010.50;5107905;28;20027;-63
2023/09/17 10:01:20;;;;;;;1.55;1.17;;;;;;;19.78;56.81;101014.91;5107000;28;20027;-64
2023/09/17 10:03:47;;;;;;;4.63;0.82;;;;;;;20.11;57.46;101017.19;5108006;28;20332;-64
2023/09/17 10:06:13;;;;;;;0.80;0.70;;;;;;;20.72;55.51;101006.88;5108064;28;20068;-64
2023/09/17 10:08:40;;;;;;;1.27;1.00;;;;;;;21.01;55.78;101015.38;5107924;28;20061;-64
2023/09/17 10:11:07;;;;;;;1.05;0.90;;;;;;;21.46;55.37;101012.56;5107586;28;20020;-65
2023/09/17 10:13:33;;;;;;;1.17;1.02;;;;;;;21.83;53.02;101014.47;5107287;28;20028;-64
2023/09/17 10:15:59;;;;;;;1.38;1.13;;;;;;;21.81;53.27;101016.31;5107874;28;20042;-64
2023/09/17 10:18:27;;;;;;;10.63;1.27;;;;;;;21.93;53.21;101015.78;5108022;28;20354;-64
2023/09/17 10:20:54;;;;;;;0.75;0.73;;;;;;;21.87;51.86;101000.22;5107648;28;20063;-66
2023/09/17 10:23:22;;;;;;;1.02;0.85;;;;;;;21.80;53.13;101010.22;5107587;28;20036;-64
2023/09/17 10:25:48;;;;;;;1.13;0.95;;;;;;;22.08;52.94;101010.72;5107614;28;20016;-63
2023/09/17 10:28:15;;;;;;;1.00;0.93;;;;;;;22.26;51.61;101016.88;5107420;28;20031;-63
2023/09/17 10:30:44;;;;;;;1.30;0.88;;;;;;;22.19;51.01;101015.47;5107507;28;20023;-64
2023/09/17 10:33:10;;;;;;;1.05;0.73;;;;;;;22.04;50.81;101018.75;5107295;28;20020;-64
2023/09/17 10:35:36;;;;;;;1.10;0.88;;;;;;;21.65;51.81;101017.00;5107326;28;20372;-64
2023/09/17 10:38:04;;;;;;;1.33;1.08;;;;;;;21.70;52.42;101009.75;5107315;28;20062;-64
2023/09/17 10:40:30;;;;;;;0.63;0.60;;;;;;;21.78;50.91;101017.34;5107373;28;20040;-64
2023/09/17 10:42:58;;;;;;;1.25;0.93;;;;;;;21.59;52.00;101012.00;5106939;28;20255;-63
2023/09/17 10:45:25;;;;;;;3.15;1.10;;;;;;;21.52;51.77;101014.06;5107283;28;20080;-63
2023/09/17 10:47:52;;;;;;;0.75;0.75;;;;;;;21.43;51.59;101018.00;5107052;28;20278;-64
2023/09/17 10:50:18;;;;;;;1.08;0.52;;;;;;;21.24;51.85;101018.81;5106896;28;20024;-64
2023/09/17 10:52:44;;;;;;;0.57;0.57;;;;;;;21.11;52.39;101030.81;5107284;28;20383;-63
2023/09/17 10:55:11;;;;;;;1.23;1.10;;;;;;;20.80;52.21;101019.75;5106773;28;20506;-64
2023/09/17 10:57:40;;;;;;;1.23;0.90;;;;;;;20.65;52.52;101053.78;5106968;28;20099;-64
2023/09/17 11:00:11;;;;;;;1.30;0.93;;;;;;;20.36;52.88;101031.19;5106408;28;20016;-64
2023/09/17 11:02:37;;;;;;;2.05;1.38;;;;;;;20.43;53.24;101022.13;5105513;28;20080;-64
2023/09/17 11:05:05;;;;;;;1.42;1.05;;;;;;;20.54;53.61;101019.91;5106391;28;20066;-64
2023/09/17 11:07:32;;;;;;;1.02;0.88;;;;;;;20.88;53.02;101016.81;5106920;28;20035;-63
2023/09/17 11:09:58;;;;;;;1.25;0.88;;;;;;;21.03;52.59;101023.22;5106532;28;20020;-64
2023/09/17 11:12:24;;;;;;;2.35;1.33;;;;;;;21.23;51.73;101018.88;5106487;28;20020;-64
2023/09/17 11:14:51;;;;;;;3.63;1.20;;;;;;;21.34;52.76;101026.31;5106560;28;20028;-63
2023/09/17 11:17:18;;;;;;;1.10;0.90;;;;;;;21.65;52.29;101019.66;5106572;28;20112;-63
2023/09/17 11:19:43;;;;;;;0.88;0.80;;;;;;;21.93;51.46;101018.44;5106267;28;20016;-64